Time;durP1;ratioP1;P1;durP2;ratioP2;P2;SDS_P1;SDS_P2;PMS_P1;PMS_P2;Temp;Humidity;BMP_temperature;BMP_pressure;BME280_temperature;BME280_humidity;BME280_pressure;Samples;Min_cycle;Max_cycle;Signal;HPM_P1;HPM_P2
2023/09/14 00:02:19;;;;;;;10.75;6.32;;;;;;;21.02;76.48;99482.69;5103985;28;20047;-86
2023/09/14 00:05:04;;;;;;;10.75;6.50;;;;;;;20.93;76.86;99469.00;5087145;28;20493;-84
2023/09/14 00:07:48;;;;;;;11.63;5.95;;;;;;;20.90;77.05;99465.00;5091499;28;20522;-85
2023/09/14 00:10:32;;;;;;;14.48;6.47;;;;;;;20.76;77.37;99469.09;5099210;28;20043;-85
2023/09/14 00:13:16;;;;;;;17.17;6.15;;;;;;;20.81;77.52;99461.97;5085851;28;20047;-83
2023/09/14 00:16:00;;;;;;;12.27;6.38;;;;;;;20.81;77.73;99467.31;5087376;28;20039;-84
2023/09/14 00:18:44;;;;;;;16.17;6.55;;;;;;;20.72;77.65;99462.66;5099491;28;20100;-83
2023/09/14 00:21:28;;;;;;;11.02;6.10;;;;;;;20.81;77.57;99461.16;5083116;28;20047;-83
2023/09/14 00:24:12;;;;;;;13.73;6.75;;;;;;;20.73;78.16;99458.94;5104836;28;20501;-83
2023/09/14 00:26:56;;;;;;;11.98;7.13;;;;;;;20.73;78.04;99457.06;5099824;28;20117;-82
2023/09/14 00:29:40;;;;;;;15.32;6.78;;;;;;;20.69;77.79;99453.28;5088757;28;20132;-85
2023/09/14 00:32:24;;;;;;;15.32;7.78;;;;;;;20.71;78.12;99451.16;5103310;28;20053;-82
2023/09/14 00:35:12;;;;;;;11.18;6.78;;;;;;;20.82;78.04;99450.25;5085535;28;20042;-83
2023/09/14 00:37:56;;;;;;;17.02;7.47;;;;;;;20.81;78.26;99447.81;5065521;28;20097;-82
2023/09/14 00:40:40;;;;;;;14.13;7.78;;;;;;;20.78;78.03;99445.63;5077380;28;20043;-83
2023/09/14 00:43:24;;;;;;;16.52;7.47;;;;;;;20.84;77.70;99436.69;5068995;28;20402;-82
2023/09/14 00:46:08;;;;;;;15.93;7.63;;;;;;;20.71;77.99;99434.38;5064581;28;20398;-83
2023/09/14 00:48:53;;;;;;;20.58;7.45;;;;;;;20.82;77.69;99428.91;5072504;28;20126;-82
2023/09/14 00:51:37;;;;;;;15.13;7.07;;;;;;;20.89;77.97;99441.22;5079614;28;20093;-86
2023/09/14 00:54:21;;;;;;;14.43;8.07;;;;;;;20.72;78.21;99425.31;5076445;28;20123;-83
2023/09/14 00:57:05;;;;;;;14.35;7.55;;;;;;;20.76;78.15;99421.91;5075061;28;20078;-82
2023/09/14 00:59:50;;;;;;;18.25;8.13;;;;;;;20.86;77.83;99426.56;5070985;28;20130;-85
2023/09/14 01:02:35;;;;;;;11.95;7.93;;;;;;;20.98;77.23;99421.84;5079363;28;20074;-82
2023/09/14 01:05:20;;;;;;;14.77;8.15;;;;;;;20.96;77.39;99415.94;5079410;28;20451;-83
2023/09/14 01:08:05;;;;;;;15.32;7.43;;;;;;;20.92;77.32;99412.19;5080232;28;20390;-83
2023/09/14 01:10:49;;;;;;;15.20;7.47;;;;;;;21.01;77.33;99406.38;5076678;28;20116;-83
2023/09/14 01:13:46;;;;;;;12.75;7.20;;;;;;;20.97;77.78;99406.88;5072461;28;20097;-82
2023/09/14 01:16:38;;;;;;;18.17;7.78;;;;;;;20.94;77.42;99399.41;5075700;28;20062;-82
2023/09/14 01:19:45;;;;;;;14.02;6.95;;;;;;;21.04;76.86;99406.69;5077278;28;20043;-81
2023/09/14 01:22:32;;;;;;;13.63;8.10;;;;;;;21.09;76.98;99408.59;5075436;28;20448;-84
2023/09/14 01:25:41;;;;;;;12.65;7.43;;;;;;;21.02;76.36;99408.81;5070716;28;20071;-84
2023/09/14 01:28:25;;;;;;;14.73;7.97;;;;;;;21.04;76.17;99404.00;5070932;28;20460;-84
2023/09/14 01:31:09;;;;;;;13.70;7.28;;;;;;;21.09;76.31;99397.91;5067071;28;20067;-84
2023/09/14 01:33:53;;;;;;;10.93;7.05;;;;;;;21.17;76.08;99408.09;5074927;28;20032;-84
2023/09/14 01:36:47;;;;;;;15.20;7.43;;;;;;;21.06;75.67;99401.88;5069644;28;20106;-86
2023/09/14 01:39:33;;;;;;;12.15;6.75;;;;;;;21.09;75.28;99406.72;5081220;28;20071;-84
2023/09/14 01:42:17;;;;;;;13.80;7.63;;;;;;;21.34;74.49;99399.97;5077944;28;20108;-84
2023/09/14 01:45:03;;;;;;;13.75;6.88;;;;;;;21.31;74.84;99394.31;5071317;28;20047;-82
2023/09/14 01:47:52;;;;;;;8.70;6.47;;;;;;;21.35;74.37;99388.22;5070593;28;20054;-84
2023/09/14 01:50:36;;;;;;;10.82;5.97;;;;;;;21.20;74.07;99394.25;5077947;28;20047;-84
2023/09/14 01:53:20;;;;;;;13.18;6.30;;;;;;;21.39;73.58;99388.50;5067766;28;20436;-84
2023/09/14 01:56:04;;;;;;;9.07;5.45;;;;;;;21.49;73.46;99380.56;5079536;28;20046;-84
2023/09/14 01:58:48;;;;;;;13.77;5.88;;;;;;;21.38;73.71;99389.56;5073797;28;20043;-83
2023/09/14 02:01:32;;;;;;;8.82;5.45;;;;;;;21.22;72.68;99394.81;5073668;28;20460;-85
2023/09/14 02:04:16;;;;;;;9.63;5.47;;;;;;;21.20;72.74;99388.13;5076447;28;20556;-84
2023/09/14 02:07:00;;;;;;;13.20;5.35;;;;;;;21.37;71.79;99377.28;5082471;28;20035;-85
2023/09/14 02:09:44;;;;;;;10.77;4.43;;;;;;;21.40;70.87;99387.44;5071234;28;20516;-85
2023/09/14 02:12:28;;;;;;;6.78;4.90;;;;;;;21.38;70.86;99365.53;5079829;28;20126;-85
2023/09/14 02:15:12;;;;;;;9.80;4.50;;;;;;;21.51;70.74;99378.44;5077915;28;20173;-84
2023/09/14 02:17:56;;;;;;;5.70;4.47;;;;;;;21.70;70.53;99378.03;5073779;28;20397;-85
2023/09/14 02:20:40;;;;;;;8.15;4.22;;;;;;;21.36;70.05;99370.31;5068214;28;20051;-86
2023/09/14 02:23:23;;;;;;;11.00;5.22;;;;;;;21.50;70.91;99376.81;5073946;28;20604;-88
2023/09/14 02:26:07;;;;;;;7.43;4.70;;;;;;;21.75;70.88;99379.91;5065095;28;20465;-85
2023/09/14 02:28:51;;;;;;;7.40;4.22;;;;;;;21.43;72.48;99376.25;5078691;28;20035;-85
2023/09/14 02:31:35;;;;;;;8.05;4.80;;;;;;;21.45;72.62;99381.31;5063313;28;20048;-84
2023/09/14 02:34:19;;;;;;;8.10;4.50;;;;;;;21.39;72.23;99380.47;5072014;28;20447;-87
2023/09/14 02:37:04;;;;;;;6.32;4.30;;;;;;;21.61;72.45;99383.03;5079562;28;20459;-86
2023/09/14 02:39:48;;;;;;;7.85;4.10;;;;;;;21.52;72.88;99380.03;5083755;28;20051;-85
2023/09/14 02:42:36;;;;;;;5.93;3.97;;;;;;;21.43;72.97;99383.44;5076763;28;20039;-85
2023/09/14 02:45:20;;;;;;;5.57;3.88;;;;;;;21.46;72.82;99381.06;5087129;28;20179;-85
2023/09/14 02:48:04;;;;;;;6.47;4.10;;;;;;;21.48;72.50;99389.63;5077114;28;20055;-84
2023/09/14 02:50:48;;;;;;;6.80;4.18;;;;;;;21.40;72.69;99392.78;5081184;28;20075;-83
2023/09/14 02:53:32;;;;;;;8.55;3.63;;;;;;;21.39;72.40;99391.97;5080133;28;20117;-84
2023/09/14 02:56:16;;;;;;;11.35;4.68;;;;;;;21.38;72.79;99371.69;5082492;28;20055;-85
2023/09/14 02:59:00;;;;;;;5.10;3.92;;;;;;;21.39;72.60;99372.47;5080454;28;20080;-84
2023/09/14 03:01:44;;;;;;;5.72;3.92;;;;;;;21.53;72.59;99375.50;5079879;28;20047;-83
2023/09/14 03:04:28;;;;;;;9.18;4.50;;;;;;;21.48;72.80;99372.78;5084373;28;20136;-84
2023/09/14 03:07:12;;;;;;;9.63;4.60;;;;;;;21.49;72.72;99375.22;5081950;28;20055;-85
2023/09/14 03:09:56;;;;;;;8.10;4.47;;;;;;;21.35;73.10;99371.38;5080364;28;20039;-85
2023/09/14 03:12:40;;;;;;;7.68;4.60;;;;;;;21.34;73.48;99367.09;5083838;28;20052;-85
2023/09/14 03:15:24;;;;;;;8.30;4.68;;;;;;;21.10;73.97;99375.50;5081445;28;20089;-86
2023/09/14 03:18:08;;;;;;;8.90;4.68;;;;;;;21.26;74.00;99361.19;5083147;28;20090;-83
2023/09/14 03:20:54;;;;;;;7.53;4.93;;;;;;;21.19;74.35;99360.59;5080245;28;20525;-85
2023/09/14 03:23:38;;;;;;;8.45;4.97;;;;;;;21.03;74.63;99358.88;5079263;28;20562;-84
2023/09/14 03:26:28;;;;;;;7.85;4.63;;;;;;;21.25;74.16;99359.59;5085551;28;20036;-86
2023/09/14 03:29:13;;;;;;;7.65;4.40;;;;;;;21.12;74.98;99363.50;5087785;28;20129;-88
2023/09/14 03:31:56;;;;;;;7.22;4.53;;;;;;;21.12;75.67;99365.38;5080563;28;20067;-86
2023/09/14 03:34:40;;;;;;;7.35;4.97;;;;;;;21.22;75.37;99369.97;5081988;28;21932;-84
2023/09/14 03:37:25;;;;;;;8.07;4.57;;;;;;;21.12;76.11;99365.38;5079148;28;20566;-86
2023/09/14 03:40:09;;;;;;;7.63;4.78;;;;;;;21.08;76.16;99346.38;5082476;28;20062;-86
2023/09/14 03:42:53;;;;;;;7.28;5.07;;;;;;;21.10;76.16;99362.94;5082310;28;20047;-85
2023/09/14 03:45:37;;;;;;;9.07;5.03;;;;;;;20.97;77.17;99363.41;5080683;28;20118;-83
2023/09/14 03:48:21;;;;;;;8.98;4.93;;;;;;;21.13;77.36;99358.97;5078912;28;20417;-83
2023/09/14 03:51:05;;;;;;;10.10;5.10;;;;;;;21.07;77.66;99363.47;5079351;28;20036;-84
2023/09/14 03:53:49;;;;;;;6.35;4.55;;;;;;;21.06;78.39;99353.06;5075028;28;20518;-84
2023/09/14 03:56:33;;;;;;;8.93;5.43;;;;;;;21.04;78.68;99357.84;5079894;28;20046;-84
2023/09/14 03:59:17;;;;;;;8.95;5.05;;;;;;;21.05;79.57;99362.13;5086972;28;20128;-85
2023/09/14 04:02:02;;;;;;;7.93;5.70;;;;;;;21.02;79.64;99357.28;5082876;28;20109;-86
2023/09/14 04:04:46;;;;;;;7.57;4.85;;;;;;;20.94;80.65;99345.25;5076247;28;20039;-85
2023/09/14 04:07:30;;;;;;;6.68;4.88;;;;;;;20.88;81.72;99344.41;5082806;28;20385;-87
2023/09/14 04:10:14;;;;;;;10.23;5.25;;;;;;;20.71;82.41;99339.13;5081831;28;20051;-85
2023/09/14 04:13:31;;;;;;;9.35;5.25;;;;;;;20.82;82.69;99346.22;5081944;28;20089;-85
2023/09/14 04:16:15;;;;;;;8.23;4.97;;;;;;;20.75;83.50;99344.78;5079159;28;20128;-84
2023/09/14 04:19:02;;;;;;;7.70;5.35;;;;;;;20.46;84.38;99353.88;5079397;28;20054;-85
2023/09/14 04:21:46;;;;;;;9.65;5.38;;;;;;;20.54;84.95;99352.59;5083888;28;20447;-84
2023/09/14 04:24:30;;;;;;;13.00;5.68;;;;;;;20.37;86.16;99340.19;5080979;28;20048;-85
2023/09/14 04:27:14;;;;;;;9.77;6.38;;;;;;;20.35;86.97;99342.31;5076884;28;20042;-85
2023/09/14 04:29:58;;;;;;;9.38;6.30;;;;;;;20.44;87.26;99345.31;5080090;28;20078;-84
2023/09/14 04:32:42;;;;;;;10.70;4.70;;;;;;;20.40;87.10;99336.22;5081609;28;20085;-84
2023/09/14 04:35:26;;;;;;;8.68;5.88;;;;;;;20.25;88.26;99336.88;5086876;28;20531;-84
2023/09/14 04:38:11;;;;;;;9.82;5.57;;;;;;;20.25;88.74;99336.88;5103833;28;20174;-84
2023/09/14 04:40:55;;;;;;;11.95;6.30;;;;;;;20.31;89.24;99335.88;5083486;28;20043;-85
2023/09/14 04:43:39;;;;;;;8.90;6.20;;;;;;;20.18;89.41;99333.59;5098444;28;20042;-85
2023/09/14 04:46:23;;;;;;;10.32;6.55;;;;;;;20.17;89.78;99329.31;5098951;28;20086;-85
2023/09/14 04:49:07;;;;;;;8.18;6.20;;;;;;;20.20;90.50;99336.81;5087774;28;20053;-85
2023/09/14 04:51:51;;;;;;;12.15;6.50;;;;;;;20.26;90.86;99333.94;5082714;28;20152;-85
2023/09/14 04:54:36;;;;;;;12.40;6.72;;;;;;;20.29;90.76;99337.16;5086201;28;20405;-86
2023/09/14 04:57:20;;;;;;;8.13;6.50;;;;;;;20.08;92.03;99331.63;5087873;28;20084;-85
2023/09/14 05:00:05;;;;;;;7.95;6.30;;;;;;;20.45;91.09;99332.81;5084133;28;20067;-85
2023/09/14 05:02:49;;;;;;;10.93;6.68;;;;;;;20.36;91.63;99335.13;5087846;28;20096;-85
2023/09/14 05:05:33;;;;;;;9.82;6.88;;;;;;;20.25;91.94;99331.56;5082072;28;20125;-85
2023/09/14 05:08:17;;;;;;;10.18;6.68;;;;;;;20.33;92.04;99328.44;5086698;28;20077;-84
2023/09/14 05:11:03;;;;;;;11.93;7.22;;;;;;;20.27;92.29;99329.44;5082758;28;20101;-85
2023/09/14 05:13:50;;;;;;;8.90;6.47;;;;;;;20.31;93.01;99327.88;5083493;28;20193;-86
2023/09/14 05:16:33;;;;;;;8.63;6.45;;;;;;;20.31;92.28;99333.22;5086483;28;20104;-84
2023/09/14 05:19:18;;;;;;;8.80;6.53;;;;;;;20.30;93.11;99344.94;5099137;28;20085;-86
2023/09/14 05:22:02;;;;;;;10.85;7.28;;;;;;;20.26;93.72;99323.28;5089344;28;20039;-85
2023/09/14 05:24:46;;;;;;;11.18;6.45;;;;;;;20.20;93.71;99323.50;5085418;28;20040;-85
2023/09/14 05:27:38;;;;;;;13.25;7.13;;;;;;;20.39;93.89;99327.41;5106351;28;20164;-84
2023/09/14 05:30:24;;;;;;;10.27;6.50;;;;;;;20.19;94.21;99321.88;5086127;28;20050;-83
2023/09/14 05:33:09;;;;;;;9.75;6.25;;;;;;;20.53;93.31;99317.13;5085697;28;20066;-85
2023/09/14 05:35:53;;;;;;;13.10;6.95;;;;;;;20.40;93.65;99318.34;5099513;28;20058;-85
2023/09/14 05:38:37;;;;;;;9.45;6.82;;;;;;;20.40;94.04;99323.69;5081589;28;20143;-83
2023/09/14 05:41:21;;;;;;;10.35;6.82;;;;;;;20.31;93.61;99309.22;5098820;28;20068;-84
2023/09/14 05:44:08;;;;;;;8.43;6.70;;;;;;;20.31;94.50;99319.06;5084121;28;20074;-84
2023/09/14 05:46:52;;;;;;;8.85;6.57;;;;;;;20.33;94.82;99307.09;5085648;28;20038;-83
2023/09/14 05:49:36;;;;;;;11.95;6.78;;;;;;;20.20;95.04;99302.16;5101227;28;20047;-82
2023/09/14 05:52:20;;;;;;;9.00;6.05;;;;;;;20.28;95.29;99307.06;5111516;27;20093;-84
2023/09/14 05:55:04;;;;;;;7.93;6.00;;;;;;;20.20;95.16;99307.50;5096261;28;20166;-83
2023/09/14 05:57:48;;;;;;;9.40;5.72;;;;;;;20.19;96.24;99296.03;5110099;27;20047;-83
2023/09/14 06:00:33;;;;;;;7.10;5.70;;;;;;;20.33;95.85;99301.78;5083809;28;20062;-81
2023/09/14 06:03:17;;;;;;;8.35;5.32;;;;;;;20.52;95.51;99307.53;5086477;28;20057;-83
2023/09/14 06:06:02;;;;;;;7.15;5.82;;;;;;;20.46;95.81;99315.75;5099026;28;20058;-82
2023/09/14 06:08:46;;;;;;;7.20;5.20;;;;;;;20.32;96.55;99316.16;5095624;28;20101;-84
2023/09/14 06:11:30;;;;;;;7.55;5.28;;;;;;;20.53;95.94;99319.00;5102898;28;20046;-81
2023/09/14 06:14:14;;;;;;;7.70;5.13;;;;;;;20.45;96.35;99311.47;5082201;28;20043;-82
2023/09/14 06:16:58;;;;;;;7.47;5.13;;;;;;;20.55;96.50;99309.69;5101799;28;20070;-81
2023/09/14 06:19:42;;;;;;;7.22;4.57;;;;;;;20.65;96.39;99308.16;5089589;28;20042;-81
2023/09/14 06:22:25;;;;;;;7.00;4.45;;;;;;;20.71;95.46;99312.47;5092516;28;20038;-82
2023/09/14 06:25:09;;;;;;;7.25;4.82;;;;;;;21.01;94.43;99310.31;5104716;28;20080;-81
2023/09/14 06:27:54;;;;;;;5.93;4.15;;;;;;;20.76;95.65;99312.53;5088006;28;20453;-81
2023/09/14 06:30:38;;;;;;;7.47;4.40;;;;;;;20.87;95.35;99313.44;5086422;28;20043;-82
2023/09/14 06:33:22;;;;;;;6.53;4.53;;;;;;;20.95;94.94;99318.28;5087481;28;20051;-82
2023/09/14 06:36:06;;;;;;;5.70;4.15;;;;;;;21.04;93.89;99325.81;5099115;28;20055;-81
2023/09/14 06:38:50;;;;;;;6.85;4.35;;;;;;;20.86;94.63;99324.34;5081176;28;20035;-85
2023/09/14 06:41:34;;;;;;;6.25;4.15;;;;;;;21.00;94.34;99327.38;5088192;28;20058;-83
2023/09/14 06:44:19;;;;;;;6.45;4.40;;;;;;;20.60;95.72;99335.59;5085241;28;20058;-84
2023/09/14 06:47:03;;;;;;;6.18;4.30;;;;;;;20.88;94.57;99344.41;5085674;28;20042;-84
2023/09/14 06:49:46;;;;;;;6.00;4.70;;;;;;;20.53;96.00;99345.66;5089928;28;20050;-83
2023/09/14 06:52:34;;;;;;;9.20;4.65;;;;;;;20.90;94.62;99333.44;5087782;28;20519;-83
2023/09/14 06:55:19;;;;;;;7.32;5.03;;;;;;;20.99;94.49;99337.25;5104450;28;20057;-82
2023/09/14 06:58:04;;;;;;;5.88;5.10;;;;;;;21.02;94.50;99342.09;5088132;28;20070;-84
2023/09/14 07:00:49;;;;;;;5.82;4.68;;;;;;;20.94;94.86;99342.56;5092285;28;20042;-82
2023/09/14 07:03:34;;;;;;;6.13;4.95;;;;;;;21.14;94.85;99341.91;5088718;28;20085;-83
2023/09/14 07:06:19;;;;;;;6.40;5.15;;;;;;;21.24;94.63;99339.31;5085265;28;20038;-82
2023/09/14 07:09:06;;;;;;;5.57;4.70;;;;;;;21.24;94.35;99341.97;5090555;28;20046;-81
2023/09/14 07:11:50;;;;;;;6.80;5.07;;;;;;;21.07;95.11;99334.09;5089345;28;20038;-82
2023/09/14 07:14:34;;;;;;;;;;;;;;;21.18;94.97;99336.84;5098928;28;20062;-80
2023/09/14 07:17:18;;;;;;;10.05;5.32;;;;;;;21.17;94.94;99343.25;5091824;28;19926;-85
2023/09/14 07:20:04;;;;;;;8.88;5.45;;;;;;;21.29;94.66;99337.72;5087169;28;20100;-81
2023/09/14 07:22:49;;;;;;;6.97;5.40;;;;;;;21.38;94.70;99342.31;5104282;28;20062;-81
2023/09/14 07:25:33;;;;;;;8.32;4.97;;;;;;;21.50;93.85;99335.94;5082669;28;20051;-83
2023/09/14 07:28:19;;;;;;;7.25;5.80;;;;;;;21.43;94.77;99343.41;5086785;28;20093;-83
2023/09/14 07:31:05;;;;;;;9.77;4.95;;;;;;;21.18;94.76;99353.66;5104287;28;20133;-81
2023/09/14 07:33:49;;;;;;;6.78;4.88;;;;;;;21.50;94.89;99355.47;5090272;28;20058;-82
2023/09/14 07:36:33;;;;;;;9.43;5.30;;;;;;;21.82;93.83;99362.59;5093737;28;20058;-84
2023/09/14 07:39:17;;;;;;;6.75;4.80;;;;;;;21.99;93.47;99366.09;5104245;28;20092;-83
2023/09/14 07:42:01;;;;;;;8.40;4.63;;;;;;;22.06;92.91;99372.81;5112960;27;20115;-81
2023/09/14 07:44:44;;;;;;;8.85;5.20;;;;;;;22.04;92.39;99366.13;5082830;28;20039;-81
2023/09/14 07:47:29;;;;;;;6.20;4.72;;;;;;;22.19;91.46;99370.69;5102318;28;20450;-82
2023/09/14 07:50:13;;;;;;;6.13;4.38;;;;;;;22.32;91.37;99372.88;5088168;28;20389;-81
2023/09/14 07:52:57;;;;;;;6.68;4.32;;;;;;;22.56;90.09;99377.75;5083712;28;20396;-82
2023/09/14 07:55:41;;;;;;;5.82;4.20;;;;;;;22.48;90.60;99389.78;5093331;28;20389;-81
2023/09/14 07:58:25;;;;;;;6.32;4.03;;;;;;;22.37;90.64;99391.59;5115012;27;20381;-83
2023/09/14 08:01:10;;;;;;;7.97;4.80;;;;;;;22.55;90.01;99389.53;5098673;28;20447;-80
2023/09/14 08:03:54;;;;;;;6.00;4.28;;;;;;;22.54;89.52;99396.75;5081861;28;20075;-80
2023/09/14 08:06:38;;;;;;;8.20;4.55;;;;;;;22.61;89.03;99396.50;5087042;28;20089;-81
2023/09/14 08:09:22;;;;;;;6.38;4.07;;;;;;;22.54;88.93;99403.97;5103333;28;20090;-83
2023/09/14 08:12:06;;;;;;;6.35;4.30;;;;;;;22.44;88.92;99398.59;5080435;28;20046;-81
2023/09/14 08:14:51;;;;;;;7.20;4.30;;;;;;;22.47;89.35;99400.75;5099765;28;20115;-81
2023/09/14 08:17:35;;;;;;;7.55;4.15;;;;;;;22.56;88.96;99404.50;5103982;28;20046;-83
2023/09/14 08:20:19;;;;;;;6.75;4.15;;;;;;;22.63;89.19;99409.59;5089340;28;20066;-81
2023/09/14 08:23:03;;;;;;;5.97;4.03;;;;;;;22.59;89.04;99395.16;5081186;28;20096;-82
2023/09/14 08:25:47;;;;;;;4.88;4.22;;;;;;;22.46;89.16;99396.44;5084044;28;20093;-82
2023/09/14 08:28:32;;;;;;;5.10;4.00;;;;;;;22.52;89.69;99406.09;5103711;28;20042;-81
2023/09/14 08:31:16;;;;;;;6.55;4.78;;;;;;;22.49;89.82;99406.63;5106153;28;20105;-82
2023/09/14 08:34:00;;;;;;;7.00;4.88;;;;;;;22.38;90.39;99409.25;5084832;28;20074;-81
2023/09/14 08:36:44;;;;;;;4.68;4.22;;;;;;;22.57;90.05;99403.44;5100306;28;20062;-81
2023/09/14 08:39:28;;;;;;;5.47;4.10;;;;;;;22.75;89.94;99412.00;5086509;28;20084;-81
2023/09/14 08:42:13;;;;;;;7.57;4.57;;;;;;;22.43;90.92;99410.34;5086444;28;20090;-82
2023/09/14 08:44:59;;;;;;;6.30;4.53;;;;;;;22.77;90.47;99409.88;5084728;28;20081;-82
2023/09/14 08:47:47;;;;;;;7.05;4.78;;;;;;;22.68;90.77;99402.38;5088218;28;20132;-82
2023/09/14 08:50:34;;;;;;;5.28;4.38;;;;;;;22.94;90.01;99413.09;5104319;28;20039;-83
2023/09/14 08:53:19;;;;;;;5.85;4.05;;;;;;;23.07;89.59;99410.97;5084868;28;20039;-81
2023/09/14 08:56:06;;;;;;;7.22;4.53;;;;;;;23.26;88.87;99397.84;5088480;28;20062;-82
2023/09/14 08:58:51;;;;;;;5.18;3.92;;;;;;;23.29;88.38;99408.03;5083469;28;20121;-82
2023/09/14 09:01:36;;;;;;;6.97;4.40;;;;;;;23.48;87.60;99418.97;5084731;28;20042;-82
2023/09/14 09:04:20;;;;;;;6.35;3.65;;;;;;;23.58;87.54;99420.00;5088995;28;20367;-82
2023/09/14 09:07:06;;;;;;;5.68;3.83;;;;;;;23.45;87.51;99424.88;5085150;28;20443;-82
2023/09/14 09:09:50;;;;;;;6.60;4.18;;;;;;;23.47;87.19;99425.41;5084292;28;20113;-82
2023/09/14 09:12:35;;;;;;;6.97;4.05;;;;;;;23.37;87.30;99431.59;5085892;28;20074;-82
2023/09/14 09:15:22;;;;;;;5.07;3.85;;;;;;;23.42;87.24;99429.97;5081996;28;20504;-82
2023/09/14 09:18:08;;;;;;;6.15;4.05;;;;;;;23.34;87.57;99439.34;5079987;28;20061;-81
2023/09/14 09:20:53;;;;;;;4.03;3.47;;;;;;;22.86;88.05;99429.69;5102920;28;20047;-81
2023/09/14 09:23:37;;;;;;;5.05;3.33;;;;;;;22.87;88.64;99433.97;5084372;28;20069;-81
2023/09/14 09:26:21;;;;;;;4.57;3.85;;;;;;;23.36;87.41;99439.88;5086164;28;20070;-82
2023/09/14 09:29:16;;;;;;;4.18;3.47;;;;;;;23.29;87.89;99447.41;5085274;28;20404;-81
2023/09/14 09:32:00;;;;;;;4.45;3.45;;;;;;;23.24;87.73;99443.63;5081121;28;20169;-82
2023/09/14 09:34:44;;;;;;;4.78;3.70;;;;;;;23.58;86.90;99436.09;5101704;28;20039;-81
2023/09/14 09:37:33;;;;;;;4.95;3.33;;;;;;;23.71;86.62;99437.41;5099903;28;20051;-82
2023/09/14 09:40:24;;;;;;;5.80;3.38;;;;;;;24.13;85.24;99430.88;5079380;28;20508;-84
2023/09/14 09:43:08;;;;;;;7.32;3.53;;;;;;;24.20;85.27;99439.41;5104856;28;20096;-84
2023/09/14 09:45:54;;;;;;;6.60;3.30;;;;;;;24.16;85.12;99429.50;5103395;28;20039;-83
2023/09/14 09:48:38;;;;;;;4.82;3.05;;;;;;;24.38;84.48;99426.44;5086304;28;20563;-83
2023/09/14 09:51:22;;;;;;;4.32;3.15;;;;;;;24.24;84.35;99420.88;5089755;28;20104;-83
2023/09/14 09:54:07;;;;;;;4.30;3.45;;;;;;;24.28;83.38;99413.88;5087568;28;20044;-85
2023/09/14 09:56:51;;;;;;;7.57;3.08;;;;;;;24.61;82.79;99411.53;5086096;28;20055;-84
2023/09/14 09:59:36;;;;;;;4.75;3.20;;;;;;;24.65;82.17;99417.94;5098397;28;20535;-84
2023/09/14 10:02:29;;;;;;;5.90;2.97;;;;;;;24.78;82.67;99423.81;5097236;28;20035;-84
2023/09/14 10:05:14;;;;;;;4.00;2.90;;;;;;;24.38;82.23;99427.25;5082300;28;20070;-83
2023/09/14 10:07:59;;;;;;;3.60;2.65;;;;;;;24.41;82.78;99425.09;5098519;28;20043;-84
2023/09/14 10:10:51;;;;;;;4.25;3.00;;;;;;;24.58;82.37;99414.78;5087384;28;20456;-84
2023/09/14 10:13:35;;;;;;;10.15;3.50;;;;;;;24.83;81.70;99420.25;5085560;28;20149;-84
2023/09/14 10:16:25;;;;;;;5.05;3.00;;;;;;;25.03;81.21;99425.47;5084594;28;20076;-84
2023/09/14 10:19:10;;;;;;;2.90;2.25;;;;;;;24.70;81.06;99421.69;5099350;28;20051;-84
2023/09/14 10:21:56;;;;;;;15.50;6.88;;;;;;;25.12;81.33;99422.19;5087509;28;20055;-84
2023/09/14 10:24:41;;;;;;;16.95;6.88;;;;;;;25.35;80.37;99421.44;5087199;28;20487;-82
2023/09/14 10:27:29;;;;;;;11.10;5.65;;;;;;;25.69;79.91;99419.75;5082665;28;20097;-84
2023/09/14 10:30:19;;;;;;;10.80;5.05;;;;;;;25.78;78.37;99418.06;5090175;28;20093;-83
2023/09/14 10:33:04;;;;;;;12.35;5.88;;;;;;;26.18;77.77;99430.50;5081078;28;20058;-83
2023/09/14 10:35:50;;;;;;;4.85;3.40;;;;;;;26.35;78.10;99425.44;5103689;28;20100;-83
2023/09/14 10:38:38;;;;;;;4.35;2.90;;;;;;;26.77;76.69;99417.53;5104316;28;20046;-83
2023/09/14 10:41:22;;;;;;;5.72;3.10;;;;;;;26.27;75.69;99426.06;5100551;28;20081;-84
2023/09/14 10:44:07;;;;;;;5.90;3.72;;;;;;;26.76;75.94;99426.72;5083898;28;20089;-83
2023/09/14 10:46:55;;;;;;;4.80;2.42;;;;;;;27.12;74.38;99419.16;5082291;28;20039;-83
2023/09/14 10:49:43;;;;;;;3.47;2.20;;;;;;;27.17;74.57;99411.81;5087363;28;20055;-84
2023/09/14 10:52:29;;;;;;;6.10;2.47;;;;;;;27.01;74.66;99424.72;5085808;28;20050;-83
2023/09/14 10:55:13;;;;;;;8.38;4.13;;;;;;;27.05;74.14;99416.84;5102275;28;20432;-83
2023/09/14 10:57:58;;;;;;;4.50;2.17;;;;;;;27.10;74.38;99422.16;5098613;28;20043;-83
2023/09/14 11:00:43;;;;;;;3.75;2.78;;;;;;;27.21;74.49;99412.00;5083436;28;20447;-83
2023/09/14 11:04:16;;;;;;;6.32;2.50;;;;;;;27.20;74.02;99426.56;5090090;28;20096;-84
2023/09/14 11:07:04;;;;;;;4.15;2.70;;;;;;;26.92;74.37;99424.63;5100301;28;20043;-83
2023/09/14 11:10:05;;;;;;;3.67;3.03;;;;;;;26.97;74.17;99428.31;5089112;28;20042;-82
2023/09/14 11:12:50;;;;;;;4.07;2.40;;;;;;;27.00;74.71;99428.50;5091180;28;20454;-83
2023/09/14 11:15:34;;;;;;;5.28;2.20;;;;;;;27.05;74.48;99428.44;5083026;28;20054;-83
2023/09/14 11:18:20;;;;;;;3.55;2.60;;;;;;;26.93;74.84;99423.53;5085256;28;20127;-83
2023/09/14 11:21:04;;;;;;;3.15;2.67;;;;;;;26.79;75.72;99418.03;5091619;28;20038;-84
2023/09/14 11:23:48;;;;;;;2.70;2.13;;;;;;;26.84;74.38;99425.25;5102093;28;20050;-83
2023/09/14 11:26:34;;;;;;;2.45;2.05;;;;;;;26.95;74.96;99425.91;5092589;28;20385;-83
2023/09/14 11:29:20;;;;;;;2.35;2.00;;;;;;;27.37;73.74;99418.72;5087912;28;20047;-83
2023/09/14 11:32:08;;;;;;;2.28;1.98;;;;;;;28.24;72.82;99411.91;5080527;28;20086;-83
2023/09/14 11:34:58;;;;;;;2.88;1.83;;;;;;;28.73;70.74;99425.66;5087545;28;20455;-83
2023/09/14 11:37:43;;;;;;;1.85;1.70;;;;;;;28.90;68.01;99422.31;5084238;28;20593;-83
2023/09/14 11:40:33;;;;;;;2.03;1.77;;;;;;;29.18;68.70;99424.03;5106651;28;20128;-83
2023/09/14 11:43:24;;;;;;;2.72;2.00;;;;;;;29.03;66.98;99422.53;5102612;28;20055;-83
2023/09/14 11:46:12;;;;;;;2.38;1.85;;;;;;;28.55;67.86;99424.72;5085194;28;20046;-82
2023/09/14 11:48:56;;;;;;;2.83;1.75;;;;;;;28.20;67.71;99425.25;5087336;28;20115;-80
2023/09/14 11:51:40;;;;;;;2.00;1.77;;;;;;;27.92;68.12;99424.47;5086763;28;20118;-82
2023/09/14 11:54:29;;;;;;;2.63;1.60;;;;;;;27.89;67.90;99435.81;5086023;28;20128;-82
2023/09/14 11:57:14;;;;;;;2.33;1.80;;;;;;;27.76;68.53;99432.84;5081173;28;20037;-83
2023/09/14 12:00:01;;;;;;;1.90;1.65;;;;;;;28.02;69.04;99426.16;5081392;28;20435;-82
2023/09/14 12:02:47;;;;;;;4.93;1.95;;;;;;;28.30;67.21;99418.81;5084871;28;20107;-86
2023/09/14 12:05:32;;;;;;;2.28;1.63;;;;;;;28.39;66.82;99416.16;5085792;28;20120;-84
2023/09/14 12:08:18;;;;;;;1.88;1.60;;;;;;;28.36;67.06;99416.78;5101777;28;20126;-85
2023/09/14 12:11:03;;;;;;;2.15;1.50;;;;;;;28.02;66.72;99423.44;5087311;28;20062;-85
2023/09/14 12:13:51;;;;;;;2.05;1.58;;;;;;;27.54;66.44;99413.88;5088286;28;20110;-85
2023/09/14 12:16:39;;;;;;;2.40;1.65;;;;;;;27.09;66.79;99425.94;5100935;28;20039;-85
2023/09/14 12:19:25;;;;;;;2.22;1.70;;;;;;;27.20;67.05;99405.00;5098335;28;20563;-85
2023/09/14 12:22:10;;;;;;;1.98;1.48;;;;;;;27.32;66.87;99423.41;5087597;28;20062;-85
2023/09/14 12:24:58;;;;;;;2.35;1.65;;;;;;;27.67;66.90;99431.16;5084683;28;20058;-85
2023/09/14 12:27:43;;;;;;;3.17;1.75;;;;;;;28.00;67.07;99404.84;5087916;28;20050;-84
2023/09/14 12:30:29;;;;;;;1.50;1.35;;;;;;;27.99;66.52;99407.84;5112006;27;20239;-86
2023/09/14 12:33:15;;;;;;;2.00;1.70;;;;;;;28.13;66.08;99414.00;5087011;28;20105;-85
2023/09/14 12:35:59;;;;;;;2.38;1.33;;;;;;;28.25;65.40;99410.81;5099026;28;20035;-86
2023/09/14 12:38:45;;;;;;;1.48;1.38;;;;;;;28.38;65.17;99406.47;5085034;28;20051;-84
2023/09/14 12:41:30;;;;;;;1.60;1.50;;;;;;;28.56;65.39;99404.72;5085724;28;20046;-85
2023/09/14 12:44:16;;;;;;;1.40;1.30;;;;;;;28.62;64.46;99394.59;5102739;28;20059;-84
2023/09/14 12:47:01;;;;;;;1.73;1.60;;;;;;;28.04;64.41;99405.06;5091378;28;20099;-83
2023/09/14 12:49:49;;;;;;;1.60;1.30;;;;;;;27.75;64.56;99401.59;5113184;27;20055;-85
2023/09/14 12:52:33;;;;;;;2.65;1.50;;;;;;;27.43;65.72;99397.06;5086692;28;20054;-85
2023/09/14 12:55:18;;;;;;;1.70;1.60;;;;;;;27.50;66.14;99413.63;5086621;28;20509;-84
2023/09/14 12:58:04;;;;;;;1.60;1.48;;;;;;;27.25;66.16;99406.81;5087255;28;20042;-85